createdAt,value
2017-11-15T00:02:11.913Z,7.20
2017-11-15T00:04:38.117Z,7.20
2017-11-15T00:07:04.337Z,7.20
2017-11-15T00:09:30.585Z,7.30
2017-11-15T00:11:56.764Z,7.30
2017-11-15T00:14:22.991Z,7.20
2017-11-15T00:16:49.162Z,7.20
2017-11-15T00:19:16.119Z,7.20
2017-11-15T00:21:42.323Z,7.20
2017-11-15T00:24:09.297Z,7.30
2017-11-15T00:26:35.482Z,7.30
2017-11-15T00:29:01.706Z,7.30
2017-11-15T00:31:27.895Z,7.30
2017-11-15T00:33:54.137Z,7.40
2017-11-15T00:36:20.329Z,7.30
2017-11-15T00:38:46.587Z,7.30
2017-11-15T00:41:12.802Z,7.30
2017-11-15T00:43:39.115Z,7.30
2017-11-15T00:46:05.313Z,7.30
2017-11-15T00:48:31.546Z,7.30
2017-11-15T00:50:58.482Z,7.40
2017-11-15T00:53:24.694Z,7.40
2017-11-15T00:55:50.892Z,7.30
2017-11-15T00:58:17.095Z,7.40
2017-11-15T01:00:44.050Z,7.40
2017-11-15T01:03:10.242Z,7.30
2017-11-15T01:05:36.450Z,7.40
2017-11-15T01:08:02.651Z,7.40
2017-11-15T01:10:28.872Z,7.40
2017-11-15T01:12:55.086Z,7.40
2017-11-15T01:15:21.302Z,7.40
2017-11-15T01:17:48.221Z,7.40
2017-11-15T01:20:14.450Z,7.30
2017-11-15T01:22:40.630Z,7.30
2017-11-15T01:25:06.858Z,7.30
2017-11-15T01:27:33.094Z,7.30
2017-11-15T01:29:59.305Z,7.30
2017-11-15T01:32:25.502Z,7.30
2017-11-15T01:34:52.477Z,7.40
2017-11-15T01:37:18.719Z,7.40
2017-11-15T01:39:44.993Z,7.50
2017-11-15T01:42:11.234Z,7.50
2017-11-15T01:44:38.241Z,7.50
2017-11-15T01:47:04.466Z,7.50
2017-11-15T01:49:30.702Z,7.40
2017-11-15T01:51:56.901Z,7.40
2017-11-15T01:54:23.166Z,7.40
2017-11-15T01:56:49.385Z,7.40
2017-11-15T01:59:15.622Z,7.40
2017-11-15T02:01:41.883Z,7.50
2017-11-15T02:04:08.878Z,7.50
2017-11-15T02:06:35.130Z,7.40
2017-11-15T02:09:01.338Z,7.40
2017-11-15T02:11:27.575Z,7.50
2017-11-15T02:13:53.773Z,7.50
2017-11-15T02:16:20.030Z,7.60
2017-11-15T02:18:46.276Z,7.70
2017-11-15T02:21:12.501Z,7.60
2017-11-15T02:23:38.730Z,7.60
2017-11-15T02:26:04.938Z,7.50
2017-11-15T02:28:31.186Z,7.50
2017-11-15T02:30:57.404Z,7.50
2017-11-15T02:33:23.650Z,7.50
2017-11-15T02:35:49.868Z,7.60
2017-11-15T02:38:16.102Z,7.60
2017-11-15T02:40:42.355Z,7.60
2017-11-15T02:43:08.610Z,7.50
2017-11-15T02:45:34.826Z,7.50
2017-11-15T02:48:01.043Z,7.50
2017-11-15T02:50:27.630Z,7.50
2017-11-15T02:52:53.854Z,7.50
2017-11-15T02:55:20.102Z,7.60
2017-11-15T02:57:46.314Z,7.60
2017-11-15T03:00:13.954Z,7.70
2017-11-15T03:02:40.173Z,7.70
2017-11-15T03:05:06.395Z,7.80
2017-11-15T03:07:32.598Z,7.80
2017-11-15T03:09:59.560Z,7.90
2017-11-15T03:12:26.518Z,7.80
2017-11-15T03:14:52.759Z,7.80
2017-11-15T03:17:18.988Z,7.80
2017-11-15T03:19:45.234Z,7.80
2017-11-15T03:22:11.439Z,7.80
2017-11-15T03:24:37.699Z,7.80
2017-11-15T03:27:03.918Z,7.90
2017-11-15T03:29:30.139Z,7.90
2017-11-15T03:31:56.339Z,7.90
2017-11-15T03:34:22.563Z,7.90
2017-11-15T03:36:48.750Z,7.90
2017-11-15T03:39:14.975Z,7.90
2017-11-15T03:41:41.282Z,7.90
2017-11-15T03:44:07.519Z,7.80
2017-11-15T03:46:34.466Z,7.70
2017-11-15T03:49:01.450Z,7.80
2017-11-15T03:51:28.374Z,7.70
2017-11-15T03:53:54.619Z,7.70
2017-11-15T03:56:21.549Z,7.60
2017-11-15T03:58:47.754Z,7.60
2017-11-15T04:01:13.950Z,7.70
2017-11-15T04:03:40.161Z,7.60
2017-11-15T04:06:07.099Z,7.70
2017-11-15T04:08:34.061Z,7.80
2017-11-15T04:11:00.376Z,7.70
2017-11-15T04:13:27.330Z,7.70
2017-11-15T04:15:54.269Z,7.80
2017-11-15T04:18:21.209Z,7.70
2017-11-15T04:20:48.130Z,7.60
2017-11-15T04:23:14.345Z,7.60
2017-11-15T04:25:41.310Z,7.70
2017-11-15T04:28:07.519Z,7.70
2017-11-15T04:30:33.746Z,7.70
2017-11-15T04:33:00.029Z,7.80
2017-11-15T04:35:26.262Z,7.80
2017-11-15T04:37:52.482Z,7.80
2017-11-15T04:40:18.702Z,7.90
2017-11-15T04:42:45.637Z,7.80
2017-11-15T04:45:12.620Z,7.80
2017-11-15T04:47:38.837Z,7.80
2017-11-15T04:50:05.073Z,7.70
2017-11-15T04:52:31.304Z,7.70
2017-11-15T04:54:57.568Z,7.70
2017-11-15T04:57:23.875Z,7.80
2017-11-15T04:59:50.130Z,7.80
2017-11-15T05:02:16.328Z,7.70
2017-11-15T05:04:42.535Z,7.70
2017-11-15T05:07:08.730Z,7.70
2017-11-15T05:09:35.693Z,7.70
2017-11-15T05:12:02.629Z,7.60
2017-11-15T05:14:29.601Z,7.60
2017-11-15T05:16:55.805Z,7.60
2017-11-15T05:19:22.798Z,7.60
2017-11-15T05:21:49.001Z,7.60
2017-11-15T05:24:15.247Z,7.60
2017-11-15T05:26:41.466Z,7.50
2017-11-15T05:29:07.697Z,7.50
2017-11-15T05:31:33.894Z,7.50
2017-11-15T05:34:00.875Z,7.50
2017-11-15T05:36:27.082Z,7.50
2017-11-15T05:38:53.325Z,7.50
2017-11-15T05:41:19.509Z,7.50
2017-11-15T05:43:45.730Z,7.50
2017-11-15T05:46:11.927Z,7.50
2017-11-15T05:48:38.175Z,7.50
2017-11-15T05:51:04.363Z,7.60
2017-11-15T05:53:30.595Z,7.60
2017-11-15T05:55:57.961Z,7.70
2017-11-15T05:58:24.188Z,7.70
2017-11-15T06:00:50.395Z,7.70
2017-11-15T06:03:16.635Z,7.60
2017-11-15T06:05:42.834Z,7.70
2017-11-15T06:08:09.790Z,7.60
2017-11-15T06:10:36.099Z,7.60
2017-11-15T06:13:03.200Z,7.60
2017-11-15T06:15:29.360Z,7.60
2017-11-15T06:17:55.721Z,7.60
2017-11-15T06:20:21.893Z,7.60
2017-11-15T06:22:48.192Z,7.60
2017-11-15T06:25:14.375Z,7.60
2017-11-15T06:27:40.611Z,7.60
2017-11-15T06:30:07.690Z,7.70
2017-11-15T06:32:33.838Z,7.70
2017-11-15T06:35:00.022Z,7.70
2017-11-15T06:37:27.042Z,7.70
2017-11-15T06:39:53.226Z,7.70
2017-11-15T06:42:19.450Z,7.70
2017-11-15T06:44:45.657Z,7.70
2017-11-15T06:47:12.602Z,7.70
2017-11-15T06:49:39.562Z,7.70
2017-11-15T06:52:05.763Z,7.70
2017-11-15T06:54:32.729Z,7.70
2017-11-15T06:56:58.925Z,7.70
2017-11-15T06:59:25.153Z,7.70
2017-11-15T07:01:51.359Z,7.70
2017-11-15T07:04:17.571Z,7.70
2017-11-15T07:06:43.758Z,7.70
2017-11-15T07:09:10.730Z,7.80
2017-11-15T07:11:36.914Z,7.80
2017-11-15T07:14:03.130Z,7.80
2017-11-15T07:16:29.331Z,7.80
2017-11-15T07:18:55.532Z,7.80
2017-11-15T07:21:21.847Z,7.80
2017-11-15T07:23:48.806Z,7.80
2017-11-15T07:26:15.006Z,7.80
2017-11-15T07:28:41.955Z,7.80
2017-11-15T07:31:08.886Z,7.90
2017-11-15T07:33:35.107Z,7.90
2017-11-15T07:36:01.302Z,8.00
2017-11-15T07:38:27.541Z,7.90
2017-11-15T07:40:53.734Z,7.90
2017-11-15T07:43:19.959Z,8.00
2017-11-15T07:45:46.159Z,8.00
2017-11-15T07:48:12.373Z,8.00
2017-11-15T07:50:38.564Z,8.00
2017-11-15T07:53:04.786Z,8.00
2017-11-15T07:55:30.981Z,8.00
2017-11-15T07:57:57.931Z,8.10
2017-11-15T08:00:24.878Z,8.10
2017-11-15T08:02:51.834Z,8.20
2017-11-15T08:05:18.027Z,8.10
2017-11-15T08:07:44.235Z,8.20
2017-11-15T08:10:10.431Z,8.30
2017-11-15T08:12:36.676Z,8.40
2017-11-15T08:15:02.881Z,8.30
2017-11-15T08:17:29.126Z,8.40
2017-11-15T08:19:55.378Z,8.40
2017-11-15T08:22:21.579Z,8.40
2017-11-15T08:24:47.779Z,8.40
2017-11-15T08:27:13.986Z,8.50
2017-11-15T08:29:40.181Z,8.50
2017-11-15T08:32:06.406Z,8.50
2017-11-15T08:34:32.602Z,8.50
2017-11-15T08:36:58.802Z,8.60
2017-11-15T08:39:25.754Z,8.50
2017-11-15T08:41:52.714Z,8.40
2017-11-15T08:44:18.927Z,8.40
2017-11-15T08:46:45.901Z,8.40
2017-11-15T08:49:12.098Z,8.40
2017-11-15T08:51:39.087Z,8.50
2017-11-15T08:54:05.296Z,8.50
2017-11-15T08:56:31.509Z,8.60
2017-11-15T08:58:58.478Z,8.60
2017-11-15T09:01:24.696Z,8.60
2017-11-15T09:03:50.931Z,8.60
2017-11-15T09:06:17.154Z,8.70
2017-11-15T09:08:43.382Z,8.70
2017-11-15T09:11:09.573Z,8.70
2017-11-15T09:13:35.785Z,8.60
2017-11-15T09:16:02.002Z,8.70
2017-11-15T09:18:28.218Z,8.70
2017-11-15T09:20:54.418Z,8.70
2017-11-15T09:23:20.643Z,8.70
2017-11-15T09:25:46.843Z,8.70
2017-11-15T09:28:13.059Z,8.70
2017-11-15T09:30:39.271Z,8.70
2017-11-15T09:33:05.511Z,8.80
2017-11-15T09:35:31.698Z,8.90
2017-11-15T09:37:57.927Z,8.80
2017-11-15T09:40:24.129Z,8.80
2017-11-15T09:42:50.347Z,8.90
2017-11-15T09:45:17.278Z,8.80
2017-11-15T09:47:43.570Z,8.80
2017-11-15T09:50:09.774Z,8.90
2017-11-15T09:52:36.053Z,9.00
2017-11-15T09:55:02.324Z,9.00
2017-11-15T09:57:28.563Z,9.00
2017-11-15T09:59:54.775Z,8.90
2017-11-15T10:02:20.998Z,9.00
2017-11-15T10:04:47.939Z,8.90
2017-11-15T10:07:14.887Z,8.90
2017-11-15T10:09:42.570Z,9.00
2017-11-15T10:12:09.088Z,9.00
2017-11-15T10:14:35.320Z,9.00
2017-11-15T10:17:05.219Z,9.10
2017-11-15T10:19:34.727Z,9.20
2017-11-15T10:22:04.094Z,9.10
2017-11-15T10:24:32.411Z,9.10
2017-11-15T10:27:02.727Z,9.20
2017-11-15T10:29:32.187Z,9.20
2017-11-15T10:32:01.220Z,9.20
2017-11-15T10:34:31.036Z,9.20
2017-11-15T10:37:00.081Z,9.20
2017-11-15T10:39:29.883Z,9.20
2017-11-15T10:41:58.601Z,9.20
2017-11-15T10:44:28.613Z,9.20
2017-11-15T10:46:57.622Z,9.20
2017-11-15T10:49:27.545Z,9.20
2017-11-15T10:51:57.124Z,9.20
2017-11-15T10:54:25.850Z,9.30
2017-11-15T10:56:54.142Z,9.30
2017-11-15T10:59:20.390Z,9.30
2017-11-15T11:01:46.629Z,9.30
2017-11-15T11:04:13.057Z,9.30
2017-11-15T11:06:39.345Z,9.40
2017-11-15T11:09:05.567Z,9.40
2017-11-15T11:11:32.546Z,9.40
2017-11-15T11:13:58.738Z,9.50
2017-11-15T11:16:24.982Z,9.60
2017-11-15T11:18:51.935Z,9.60
2017-11-15T11:21:18.181Z,9.60
2017-11-15T11:23:44.437Z,9.70
2017-11-15T11:26:10.658Z,9.70
2017-11-15T11:28:36.879Z,9.80
2017-11-15T11:31:03.113Z,9.90
2017-11-15T11:33:29.341Z,10.00
2017-11-15T11:35:55.545Z,10.10
2017-11-15T11:38:21.739Z,10.10
2017-11-15T11:40:47.935Z,10.10
2017-11-15T11:43:14.114Z,10.10
2017-11-15T11:45:40.393Z,10.00
2017-11-15T11:48:06.574Z,10.00
2017-11-15T11:50:32.801Z,10.00
2017-11-15T11:52:59.722Z,10.00
2017-11-15T11:55:26.675Z,10.00
2017-11-15T11:57:53.770Z,10.10
2017-11-15T12:00:20.806Z,10.10
2017-11-15T12:02:46.998Z,10.10
2017-11-15T12:05:13.957Z,10.20
2017-11-15T12:07:40.167Z,10.20
2017-11-15T12:10:07.561Z,10.30
2017-11-15T12:12:33.830Z,10.30
2017-11-15T12:15:00.044Z,10.30
2017-11-15T12:17:26.258Z,10.30
2017-11-15T12:19:52.490Z,10.20
2017-11-15T12:22:18.733Z,10.20
2017-11-15T12:24:44.957Z,10.10
2017-11-15T12:27:11.168Z,10.10
2017-11-15T12:32:10.198Z,10.10
2017-11-15T12:34:36.411Z,10.10
2017-11-15T12:37:02.720Z,10.20
2017-11-15T12:39:28.973Z,10.20
2017-11-15T12:41:55.230Z,10.10
2017-11-15T12:44:21.462Z,10.10
2017-11-15T12:46:47.805Z,10.10
2017-11-15T12:49:14.788Z,10.10
2017-11-15T12:51:41.018Z,10.10
2017-11-15T12:54:07.234Z,10.20
2017-11-15T12:56:33.461Z,10.10
2017-11-15T12:58:59.642Z,10.00
2017-11-15T13:01:25.924Z,10.00
2017-11-15T13:03:52.100Z,10.00
2017-11-15T13:06:18.331Z,9.90
2017-11-15T13:08:44.523Z,9.90
2017-11-15T13:11:10.774Z,9.90
2017-11-15T13:13:37.014Z,9.90
2017-11-15T13:16:03.350Z,9.90
2017-11-15T13:18:29.665Z,9.80
2017-11-15T13:20:55.886Z,9.70
2017-11-15T13:23:22.107Z,9.70
2017-11-15T13:25:48.322Z,9.70
2017-11-15T13:28:14.593Z,9.80
2017-11-15T13:30:40.806Z,9.80
2017-11-15T13:33:07.020Z,9.80
2017-11-15T13:35:33.262Z,9.80
2017-11-15T13:37:59.578Z,9.80
2017-11-15T13:40:25.829Z,9.80
2017-11-15T13:42:52.042Z,9.80
2017-11-15T13:45:18.297Z,9.80
2017-11-15T13:47:44.501Z,9.90
2017-11-15T13:50:10.739Z,9.80
2017-11-15T13:52:37.039Z,9.80
2017-11-15T13:55:03.290Z,9.90
2017-11-15T13:57:29.507Z,9.80
2017-11-15T13:59:56.134Z,9.90
2017-11-15T14:02:22.310Z,9.90
2017-11-15T14:04:49.253Z,9.80
2017-11-15T14:07:15.430Z,9.80
2017-11-15T14:09:41.612Z,9.80
2017-11-15T14:12:08.566Z,9.80
2017-11-15T14:14:35.501Z,9.90
2017-11-15T14:17:02.455Z,9.90
2017-11-15T14:19:29.438Z,9.90
2017-11-15T14:21:55.650Z,9.90
2017-11-15T14:24:21.850Z,9.90
2017-11-15T14:26:48.810Z,9.80
2017-11-15T14:29:15.000Z,9.70
2017-11-15T14:31:41.201Z,9.80
2017-11-15T14:34:07.431Z,9.80
2017-11-15T14:36:33.641Z,9.80
2017-11-15T14:38:59.849Z,9.80
2017-11-15T14:41:26.809Z,9.70
2017-11-15T14:43:52.995Z,9.70
2017-11-15T14:46:19.206Z,9.70
2017-11-15T14:48:45.407Z,9.60
2017-11-15T14:51:11.610Z,9.60
2017-11-15T14:53:37.814Z,9.70
2017-11-15T14:56:04.771Z,9.70
2017-11-15T14:58:31.744Z,9.60
2017-11-15T15:00:58.033Z,9.60
2017-11-15T15:03:24.270Z,9.60
2017-11-15T15:05:51.334Z,9.60
2017-11-15T15:08:17.542Z,9.60
2017-11-15T15:10:44.512Z,9.60
2017-11-15T15:13:10.750Z,9.60
2017-11-15T15:15:37.066Z,9.60
2017-11-15T15:18:03.291Z,9.60
2017-11-15T15:20:29.577Z,9.60
2017-11-15T15:22:55.789Z,9.50
2017-11-15T15:25:22.022Z,9.60
2017-11-15T15:27:48.246Z,9.60
2017-11-15T15:30:14.474Z,9.60
2017-11-15T15:32:40.665Z,9.60
2017-11-15T15:35:07.070Z,9.60
2017-11-15T15:37:33.250Z,9.60
2017-11-15T15:39:59.499Z,9.60
2017-11-15T15:42:25.767Z,9.60
2017-11-15T15:44:52.781Z,9.60
2017-11-15T15:47:18.993Z,9.60
2017-11-15T15:49:45.211Z,9.60
2017-11-15T15:52:11.412Z,9.60
2017-11-15T15:54:37.598Z,9.60
2017-11-15T15:57:03.920Z,9.70
2017-11-15T15:59:30.124Z,9.60
2017-11-15T16:01:56.356Z,9.60
2017-11-15T16:04:22.580Z,9.50
2017-11-15T16:06:48.794Z,9.50
2017-11-15T16:09:15.037Z,9.50
2017-11-15T16:11:41.256Z,9.50
2017-11-15T16:14:07.535Z,9.50
2017-11-15T16:16:33.748Z,9.50
2017-11-15T16:19:15.165Z,9.50
2017-11-15T16:21:42.102Z,9.40
2017-11-15T16:24:08.360Z,9.40
2017-11-15T16:26:34.904Z,9.40
2017-11-15T16:29:01.267Z,9.40
2017-11-15T16:31:27.595Z,9.40
2017-11-15T16:33:54.040Z,9.40
2017-11-15T16:36:20.276Z,9.40
2017-11-15T16:38:47.238Z,9.50
2017-11-15T16:41:14.198Z,9.50
2017-11-15T16:43:40.416Z,9.50
2017-11-15T16:46:07.759Z,9.50
2017-11-15T16:48:34.872Z,9.50
2017-11-15T16:51:01.305Z,9.50
2017-11-15T16:53:27.838Z,9.50
2017-11-15T16:55:54.865Z,9.50
2017-11-15T16:58:22.738Z,9.50
2017-11-15T17:00:49.493Z,9.40
2017-11-15T17:03:15.962Z,9.40
2017-11-15T17:05:42.622Z,9.40
2017-11-15T17:08:09.219Z,9.50
2017-11-15T17:10:36.102Z,9.50
2017-11-15T17:13:03.062Z,9.40
2017-11-15T17:15:29.370Z,9.40
2017-11-15T17:17:55.598Z,9.30
2017-11-15T17:20:22.565Z,9.30
2017-11-15T17:22:48.818Z,9.20
2017-11-15T17:25:15.067Z,9.20
2017-11-15T17:27:41.413Z,9.20
2017-11-15T17:30:07.759Z,9.20
2017-11-15T17:32:34.957Z,9.20
2017-11-15T17:35:01.355Z,9.20
2017-11-15T17:37:27.606Z,9.30
2017-11-15T17:39:53.867Z,9.30
2017-11-15T17:42:20.181Z,9.30
2017-11-15T17:44:46.457Z,9.30
2017-11-15T17:47:13.443Z,9.40
2017-11-15T17:49:39.802Z,9.50
2017-11-15T17:52:05.998Z,9.50
2017-11-15T17:54:32.467Z,9.60
2017-11-15T17:56:58.689Z,9.70
2017-11-15T17:59:24.920Z,9.70
2017-11-15T18:01:51.128Z,9.70
2017-11-15T18:04:17.371Z,9.80
2017-11-15T18:06:43.598Z,9.90
2017-11-15T18:09:10.553Z,9.90
2017-11-15T18:11:36.744Z,9.90
2017-11-15T18:14:02.972Z,10.10
2017-11-15T18:16:29.158Z,10.10
2017-11-15T18:18:55.396Z,10.00
2017-11-15T18:21:22.338Z,9.90
2017-11-15T18:23:49.315Z,9.80
2017-11-15T18:26:15.558Z,9.80
2017-11-15T18:28:41.765Z,9.80
2017-11-15T18:31:07.978Z,9.90
2017-11-15T18:33:34.923Z,9.80
2017-11-15T18:36:01.146Z,9.80
2017-11-15T18:38:28.200Z,9.90
2017-11-15T18:40:54.437Z,9.90
2017-11-15T18:43:20.639Z,10.00
2017-11-15T18:45:48.117Z,10.20
2017-11-15T18:48:14.351Z,10.10
2017-11-15T18:50:44.569Z,10.20
2017-11-15T18:53:10.818Z,10.20
2017-11-15T18:55:37.065Z,10.30
2017-11-15T18:58:03.279Z,10.20
2017-11-15T19:00:29.552Z,10.00
2017-11-15T19:02:55.848Z,10.10
2017-11-15T19:05:22.124Z,10.00
2017-11-15T19:07:48.368Z,9.80
2017-11-15T19:10:14.661Z,9.70
2017-11-15T19:12:40.887Z,9.70
2017-11-15T19:15:07.217Z,9.70
2017-11-15T19:17:33.558Z,9.70
2017-11-15T19:20:00.031Z,9.60
2017-11-15T19:22:26.538Z,9.70
2017-11-15T19:24:53.069Z,9.70
2017-11-15T19:27:19.570Z,9.70
2017-11-15T19:29:46.091Z,9.60
2017-11-15T19:32:12.602Z,9.60
2017-11-15T19:34:39.123Z,9.60
2017-11-15T19:37:05.629Z,9.60
2017-11-15T19:39:32.202Z,9.60
2017-11-15T19:41:58.706Z,9.60
2017-11-15T19:44:25.269Z,9.70
2017-11-15T19:46:51.784Z,9.70
2017-11-15T19:49:18.326Z,9.50
2017-11-15T19:51:44.859Z,9.50
2017-11-15T19:54:11.414Z,9.60
2017-11-15T19:56:37.915Z,9.50
2017-11-15T19:59:04.434Z,9.60
2017-11-15T20:01:30.952Z,9.60
2017-11-15T20:03:57.474Z,9.50
2017-11-15T20:06:23.988Z,9.50
2017-11-15T20:08:50.533Z,9.50
2017-11-15T20:11:17.043Z,9.50
2017-11-15T20:13:43.518Z,9.50
2017-11-15T20:16:10.033Z,9.60
2017-11-15T20:18:36.568Z,9.70
2017-11-15T20:21:03.096Z,9.80
2017-11-15T20:23:29.629Z,9.90
2017-11-15T20:25:56.144Z,10.00
2017-11-15T20:28:22.646Z,10.10
2017-11-15T20:30:49.912Z,10.00
2017-11-15T20:33:17.227Z,10.10
2017-11-15T20:35:43.738Z,10.10
2017-11-15T20:38:10.951Z,10.10
2017-11-15T20:40:37.517Z,10.00
2017-11-15T20:43:04.081Z,10.10
2017-11-15T20:45:30.576Z,10.10
2017-11-15T20:47:57.012Z,10.20
2017-11-15T20:50:23.417Z,10.30
2017-11-15T20:52:49.799Z,10.40
2017-11-15T20:55:16.161Z,10.40
2017-11-15T20:57:42.524Z,10.40
2017-11-15T21:00:09.638Z,10.30
2017-11-15T21:02:35.938Z,10.30
2017-11-15T21:05:02.995Z,10.20
2017-11-15T21:07:29.260Z,10.20
2017-11-15T21:09:55.521Z,10.30
2017-11-15T21:12:21.806Z,10.20
2017-11-15T21:14:48.784Z,10.30
2017-11-15T21:17:14.989Z,10.20
2017-11-15T21:19:41.214Z,10.30
2017-11-15T21:22:07.426Z,10.40
2017-11-15T21:24:33.822Z,10.40
2017-11-15T21:27:00.036Z,10.50
2017-11-15T21:29:26.467Z,10.60
2017-11-15T21:31:52.666Z,10.40
2017-11-15T21:34:18.898Z,10.30
2017-11-15T21:36:45.107Z,10.30
2017-11-15T21:39:11.338Z,10.10
2017-11-15T21:41:37.622Z,10.10
2017-11-15T21:44:03.852Z,10.00
2017-11-15T21:46:30.806Z,10.00
2017-11-15T21:48:57.052Z,10.00
2017-11-15T21:51:24.006Z,9.90
2017-11-15T21:53:50.247Z,9.90
2017-11-15T21:56:16.466Z,10.00
2017-11-15T21:58:42.691Z,10.00
2017-11-15T22:01:08.905Z,10.00
2017-11-15T22:03:35.907Z,10.00
2017-11-15T22:06:02.125Z,9.90
2017-11-15T22:08:28.359Z,10.00
2017-11-15T22:10:54.549Z,10.00
2017-11-15T22:13:20.782Z,10.00
2017-11-15T22:15:46.970Z,10.00
2017-11-15T22:18:13.941Z,9.80
2017-11-15T22:20:40.215Z,9.80
2017-11-15T22:23:07.225Z,9.80
2017-11-15T22:25:33.442Z,9.70
2017-11-15T22:27:59.689Z,9.80
2017-11-15T22:30:25.867Z,9.80
2017-11-15T22:32:52.103Z,9.80
2017-11-15T22:35:18.313Z,9.80
2017-11-15T22:37:44.548Z,9.70
2017-11-15T22:40:10.771Z,9.70
2017-11-15T22:42:37.018Z,9.60
2017-11-15T22:45:04.066Z,9.60
2017-11-15T22:47:30.342Z,9.60
2017-11-15T22:49:56.912Z,9.60
2017-11-15T22:52:23.138Z,9.70
2017-11-15T22:54:49.347Z,9.70
2017-11-15T22:57:15.571Z,9.50
2017-11-15T22:59:41.766Z,9.30
2017-11-15T23:02:08.000Z,9.20
2017-11-15T23:04:34.301Z,9.20
2017-11-15T23:07:01.369Z,9.10
2017-11-15T23:09:27.598Z,9.00
2017-11-15T23:11:53.844Z,9.10
2017-11-15T23:14:20.115Z,9.10
2017-11-15T23:16:46.335Z,9.10
2017-11-15T23:19:12.687Z,9.10
2017-11-15T23:21:38.907Z,9.10
2017-11-15T23:24:05.146Z,9.00
2017-11-15T23:26:31.363Z,9.00
2017-11-15T23:28:57.579Z,9.10
2017-11-15T23:31:23.902Z,9.00
2017-11-15T23:33:50.142Z,9.00
2017-11-15T23:36:16.390Z,8.90
2017-11-15T23:38:42.704Z,8.90
2017-11-15T23:41:08.950Z,9.00
2017-11-15T23:43:35.372Z,8.90
2017-11-15T23:46:02.687Z,8.80
2017-11-15T23:48:29.149Z,8.80
2017-11-15T23:50:55.653Z,8.90
2017-11-15T23:53:22.129Z,8.90
2017-11-15T23:55:49.175Z,8.80
2017-11-15T23:58:15.397Z,8.80
